METAR Data
IDs: Format: Raw Decoded Include TAF

Data at: 0317 UTC 25 Feb 2021

KLAX 250314Z 25004KT 1 1/2SM R25L/6000VP6000FT BR FEW002 11/11 A3001 RMK AO2 T01110106